sensor_id;sensor_type;location;lat;lon;timestamp;P1;durP1;ratioP1;P2;durP2;ratioP2
37903;SDS011;23738;50.422;18.758;2023-11-22T00:00:25;29.20;;;19.80;;
37903;SDS011;23738;50.422;18.758;2023-11-22T00:02:54;25.60;;;19.80;;
37903;SDS011;23738;50.422;18.758;2023-11-22T00:05:24;29.40;;;20.80;;
37903;SDS011;23738;50.422;18.758;2023-11-22T00:07:53;30.50;;;20.90;;
37903;SDS011;23738;50.422;18.758;2023-11-22T00:10:23;30.20;;;21.00;;
37903;SDS011;23738;50.422;18.758;2023-11-22T00:12:55;29.90;;;19.80;;
37903;SDS011;23738;50.422;18.758;2023-11-22T00:15:25;26.30;;;19.30;;
37903;SDS011;23738;50.422;18.758;2023-11-22T00:17:55;24.50;;;17.40;;
37903;SDS011;23738;50.422;18.758;2023-11-22T00:20:25;29.80;;;18.60;;
37903;SDS011;23738;50.422;18.758;2023-11-22T00:22:54;28.60;;;19.70;;
37903;SDS011;23738;50.422;18.758;2023-11-22T00:25:25;28.20;;;20.20;;
37903;SDS011;23738;50.422;18.758;2023-11-22T00:27:55;28.10;;;21.60;;
37903;SDS011;23738;50.422;18.758;2023-11-22T00:30:24;32.60;;;21.60;;
37903;SDS011;23738;50.422;18.758;2023-11-22T00:32:54;31.40;;;21.30;;
37903;SDS011;23738;50.422;18.758;2023-11-22T00:35:24;25.50;;;18.80;;
37903;SDS011;23738;50.422;18.758;2023-11-22T00:37:54;31.20;;;21.00;;
37903;SDS011;23738;50.422;18.758;2023-11-22T00:40:25;30.40;;;20.60;;
37903;SDS011;23738;50.422;18.758;2023-11-22T00:42:54;31.00;;;22.50;;
37903;SDS011;23738;50.422;18.758;2023-11-22T00:45:24;35.60;;;22.90;;
37903;SDS011;23738;50.422;18.758;2023-11-22T00:47:54;35.40;;;24.10;;
37903;SDS011;23738;50.422;18.758;2023-11-22T00:50:23;39.40;;;24.40;;
37903;SDS011;23738;50.422;18.758;2023-11-22T00:52:53;36.50;;;21.70;;
37903;SDS011;23738;50.422;18.758;2023-11-22T00:55:23;39.10;;;22.90;;
37903;SDS011;23738;50.422;18.758;2023-11-22T00:57:53;33.60;;;22.50;;
37903;SDS011;23738;50.422;18.758;2023-11-22T01:00:30;34.20;;;23.50;;
37903;SDS011;23738;50.422;18.758;2023-11-22T01:02:59;33.90;;;24.70;;
37903;SDS011;23738;50.422;18.758;2023-11-22T01:05:31;33.40;;;22.70;;
37903;SDS011;23738;50.422;18.758;2023-11-22T01:08:02;36.40;;;23.80;;
37903;SDS011;23738;50.422;18.758;2023-11-22T01:10:32;39.20;;;23.90;;
37903;SDS011;23738;50.422;18.758;2023-11-22T01:13:02;38.50;;;23.80;;
37903;SDS011;23738;50.422;18.758;2023-11-22T01:15:32;32.20;;;22.40;;
37903;SDS011;23738;50.422;18.758;2023-11-22T01:18:02;35.20;;;21.80;;
37903;SDS011;23738;50.422;18.758;2023-11-22T01:20:31;39.00;;;25.30;;
37903;SDS011;23738;50.422;18.758;2023-11-22T01:23:01;39.10;;;25.70;;
37903;SDS011;23738;50.422;18.758;2023-11-22T01:25:31;41.60;;;26.90;;
37903;SDS011;23738;50.422;18.758;2023-11-22T01:28:01;40.60;;;26.20;;
37903;SDS011;23738;50.422;18.758;2023-11-22T01:30:31;45.60;;;25.40;;
37903;SDS011;23738;50.422;18.758;2023-11-22T01:33:01;39.50;;;24.80;;
37903;SDS011;23738;50.422;18.758;2023-11-22T01:35:31;36.10;;;25.00;;
37903;SDS011;23738;50.422;18.758;2023-11-22T01:38:01;39.70;;;25.20;;
37903;SDS011;23738;50.422;18.758;2023-11-22T01:40:31;42.00;;;26.60;;
37903;SDS011;23738;50.422;18.758;2023-11-22T01:43:01;40.10;;;26.90;;
37903;SDS011;23738;50.422;18.758;2023-11-22T01:45:32;38.00;;;24.30;;
37903;SDS011;23738;50.422;18.758;2023-11-22T01:48:01;34.10;;;22.40;;
37903;SDS011;23738;50.422;18.758;2023-11-22T01:50:31;36.20;;;23.60;;
37903;SDS011;23738;50.422;18.758;2023-11-22T01:53:03;34.40;;;21.90;;
37903;SDS011;23738;50.422;18.758;2023-11-22T01:55:33;31.70;;;21.20;;
37903;SDS011;23738;50.422;18.758;2023-11-22T01:58:03;30.20;;;20.70;;
37903;SDS011;23738;50.422;18.758;2023-11-22T02:00:35;36.90;;;23.60;;
37903;SDS011;23738;50.422;18.758;2023-11-22T02:03:10;33.70;;;20.10;;
37903;SDS011;23738;50.422;18.758;2023-11-22T02:05:41;24.60;;;18.80;;
37903;SDS011;23738;50.422;18.758;2023-11-22T02:08:12;28.90;;;20.10;;
37903;SDS011;23738;50.422;18.758;2023-11-22T02:10:42;30.40;;;21.00;;
37903;SDS011;23738;50.422;18.758;2023-11-22T02:13:13;30.70;;;20.80;;
37903;SDS011;23738;50.422;18.758;2023-11-22T02:15:43;34.50;;;22.70;;
37903;SDS011;23738;50.422;18.758;2023-11-22T02:18:13;38.80;;;22.50;;
37903;SDS011;23738;50.422;18.758;2023-11-22T02:20:43;27.00;;;18.80;;
37903;SDS011;23738;50.422;18.758;2023-11-22T02:23:13;29.70;;;19.30;;
37903;SDS011;23738;50.422;18.758;2023-11-22T02:25:44;31.50;;;19.90;;
37903;SDS011;23738;50.422;18.758;2023-11-22T02:28:14;24.80;;;18.70;;
37903;SDS011;23738;50.422;18.758;2023-11-22T02:30:44;25.20;;;19.10;;
37903;SDS011;23738;50.422;18.758;2023-11-22T02:33:14;25.20;;;18.50;;
37903;SDS011;23738;50.422;18.758;2023-11-22T02:35:43;34.80;;;23.30;;
37903;SDS011;23738;50.422;18.758;2023-11-22T02:38:13;35.20;;;23.50;;
37903;SDS011;23738;50.422;18.758;2023-11-22T02:40:44;38.00;;;24.60;;
37903;SDS011;23738;50.422;18.758;2023-11-22T02:43:15;39.00;;;23.90;;
37903;SDS011;23738;50.422;18.758;2023-11-22T02:45:45;38.10;;;24.60;;
37903;SDS011;23738;50.422;18.758;2023-11-22T02:48:15;38.50;;;24.30;;
37903;SDS011;23738;50.422;18.758;2023-11-22T02:50:45;43.30;;;26.20;;
37903;SDS011;23738;50.422;18.758;2023-11-22T02:53:15;39.20;;;25.00;;
37903;SDS011;23738;50.422;18.758;2023-11-22T02:55:45;37.30;;;23.70;;
37903;SDS011;23738;50.422;18.758;2023-11-22T02:58:15;35.60;;;23.70;;
37903;SDS011;23738;50.422;18.758;2023-11-22T03:00:45;39.90;;;24.10;;
37903;SDS011;23738;50.422;18.758;2023-11-22T03:03:16;42.50;;;24.90;;
37903;SDS011;23738;50.422;18.758;2023-11-22T03:05:47;41.00;;;25.00;;
37903;SDS011;23738;50.422;18.758;2023-11-22T03:08:16;45.90;;;26.00;;
37903;SDS011;23738;50.422;18.758;2023-11-22T03:10:46;44.10;;;26.60;;
37903;SDS011;23738;50.422;18.758;2023-11-22T03:13:17;39.40;;;23.80;;
37903;SDS011;23738;50.422;18.758;2023-11-22T03:15:47;35.50;;;22.80;;
37903;SDS011;23738;50.422;18.758;2023-11-22T03:18:17;34.30;;;22.20;;
37903;SDS011;23738;50.422;18.758;2023-11-22T03:20:48;35.70;;;21.80;;
37903;SDS011;23738;50.422;18.758;2023-11-22T03:23:21;34.00;;;21.40;;
37903;SDS011;23738;50.422;18.758;2023-11-22T03:25:52;28.20;;;19.30;;
37903;SDS011;23738;50.422;18.758;2023-11-22T03:28:22;29.50;;;19.90;;
37903;SDS011;23738;50.422;18.758;2023-11-22T03:30:51;25.80;;;19.70;;
37903;SDS011;23738;50.422;18.758;2023-11-22T03:33:21;31.90;;;21.20;;
37903;SDS011;23738;50.422;18.758;2023-11-22T03:35:51;25.60;;;18.80;;
37903;SDS011;23738;50.422;18.758;2023-11-22T03:38:21;28.00;;;18.00;;
37903;SDS011;23738;50.422;18.758;2023-11-22T03:40:50;24.00;;;18.50;;
37903;SDS011;23738;50.422;18.758;2023-11-22T03:43:20;28.00;;;19.40;;
37903;SDS011;23738;50.422;18.758;2023-11-22T03:45:50;30.20;;;18.50;;
37903;SDS011;23738;50.422;18.758;2023-11-22T03:48:19;24.00;;;18.40;;
37903;SDS011;23738;50.422;18.758;2023-11-22T03:50:50;18.70;;;14.80;;
37903;SDS011;23738;50.422;18.758;2023-11-22T03:53:19;16.50;;;14.10;;
37903;SDS011;23738;50.422;18.758;2023-11-22T03:55:49;17.40;;;14.20;;
37903;SDS011;23738;50.422;18.758;2023-11-22T03:58:19;17.50;;;13.10;;
37903;SDS011;23738;50.422;18.758;2023-11-22T04:00:49;20.70;;;14.90;;
37903;SDS011;23738;50.422;18.758;2023-11-22T04:03:19;21.50;;;16.10;;
37903;SDS011;23738;50.422;18.758;2023-11-22T04:05:49;19.90;;;15.20;;
37903;SDS011;23738;50.422;18.758;2023-11-22T04:08:19;20.90;;;15.80;;
37903;SDS011;23738;50.422;18.758;2023-11-22T04:10:49;19.20;;;16.00;;
37903;SDS011;23738;50.422;18.758;2023-11-22T04:13:18;25.10;;;17.00;;
37903;SDS011;23738;50.422;18.758;2023-11-22T04:15:49;22.20;;;16.00;;
37903;SDS011;23738;50.422;18.758;2023-11-22T04:18:19;24.40;;;16.40;;
37903;SDS011;23738;50.422;18.758;2023-11-22T04:20:49;23.50;;;17.00;;
37903;SDS011;23738;50.422;18.758;2023-11-22T04:23:19;44.70;;;22.20;;
37903;SDS011;23738;50.422;18.758;2023-11-22T04:25:49;47.70;;;23.70;;
37903;SDS011;23738;50.422;18.758;2023-11-22T04:28:18;64.70;;;29.20;;
37903;SDS011;23738;50.422;18.758;2023-11-22T04:30:48;40.40;;;22.70;;
37903;SDS011;23738;50.422;18.758;2023-11-22T04:33:18;36.30;;;22.20;;
37903;SDS011;23738;50.422;18.758;2023-11-22T04:35:48;40.50;;;22.30;;
37903;SDS011;23738;50.422;18.758;2023-11-22T04:38:19;33.60;;;21.40;;
37903;SDS011;23738;50.422;18.758;2023-11-22T04:40:48;38.60;;;21.70;;
37903;SDS011;23738;50.422;18.758;2023-11-22T04:43:18;30.50;;;19.50;;
37903;SDS011;23738;50.422;18.758;2023-11-22T04:45:48;32.00;;;20.70;;
37903;SDS011;23738;50.422;18.758;2023-11-22T04:48:17;36.60;;;20.50;;
37903;SDS011;23738;50.422;18.758;2023-11-22T04:50:47;34.70;;;22.10;;
37903;SDS011;23738;50.422;18.758;2023-11-22T04:53:16;34.10;;;20.70;;
37903;SDS011;23738;50.422;18.758;2023-11-22T04:55:46;31.00;;;20.10;;
37903;SDS011;23738;50.422;18.758;2023-11-22T04:58:16;26.20;;;19.30;;
37903;SDS011;23738;50.422;18.758;2023-11-22T05:00:46;24.70;;;17.20;;
37903;SDS011;23738;50.422;18.758;2023-11-22T05:03:16;25.20;;;18.50;;
37903;SDS011;23738;50.422;18.758;2023-11-22T05:05:46;24.00;;;18.50;;
37903;SDS011;23738;50.422;18.758;2023-11-22T05:08:15;25.00;;;16.80;;
37903;SDS011;23738;50.422;18.758;2023-11-22T05:10:45;22.70;;;15.70;;
37903;SDS011;23738;50.422;18.758;2023-11-22T05:13:15;25.60;;;16.50;;
37903;SDS011;23738;50.422;18.758;2023-11-22T05:15:44;25.10;;;16.40;;
37903;SDS011;23738;50.422;18.758;2023-11-22T05:18:14;24.70;;;18.60;;
37903;SDS011;23738;50.422;18.758;2023-11-22T05:20:44;25.10;;;17.50;;
37903;SDS011;23738;50.422;18.758;2023-11-22T05:23:15;28.80;;;17.10;;
37903;SDS011;23738;50.422;18.758;2023-11-22T05:25:44;29.60;;;17.90;;
37903;SDS011;23738;50.422;18.758;2023-11-22T05:28:15;40.30;;;19.50;;
37903;SDS011;23738;50.422;18.758;2023-11-22T05:30:45;29.80;;;18.90;;
37903;SDS011;23738;50.422;18.758;2023-11-22T05:33:14;28.00;;;19.20;;
37903;SDS011;23738;50.422;18.758;2023-11-22T05:35:44;26.50;;;17.60;;
37903;SDS011;23738;50.422;18.758;2023-11-22T05:38:13;29.40;;;19.10;;
37903;SDS011;23738;50.422;18.758;2023-11-22T05:40:43;29.90;;;19.50;;
37903;SDS011;23738;50.422;18.758;2023-11-22T05:43:13;25.10;;;18.90;;
37903;SDS011;23738;50.422;18.758;2023-11-22T05:45:44;29.80;;;17.70;;
37903;SDS011;23738;50.422;18.758;2023-11-22T05:48:16;27.10;;;18.10;;
37903;SDS011;23738;50.422;18.758;2023-11-22T05:50:46;29.60;;;18.30;;
37903;SDS011;23738;50.422;18.758;2023-11-22T05:53:16;23.20;;;16.90;;
37903;SDS011;23738;50.422;18.758;2023-11-22T05:55:46;26.90;;;16.60;;
37903;SDS011;23738;50.422;18.758;2023-11-22T05:58:16;25.60;;;17.60;;
37903;SDS011;23738;50.422;18.758;2023-11-22T06:00:48;20.60;;;15.40;;
37903;SDS011;23738;50.422;18.758;2023-11-22T06:03:17;29.40;;;18.00;;
37903;SDS011;23738;50.422;18.758;2023-11-22T06:05:47;23.20;;;16.70;;
37903;SDS011;23738;50.422;18.758;2023-11-22T06:08:17;22.40;;;15.80;;
37903;SDS011;23738;50.422;18.758;2023-11-22T06:10:47;22.20;;;16.40;;
37903;SDS011;23738;50.422;18.758;2023-11-22T06:13:16;21.00;;;15.50;;
37903;SDS011;23738;50.422;18.758;2023-11-22T06:15:46;27.50;;;16.20;;
37903;SDS011;23738;50.422;18.758;2023-11-22T06:18:16;19.30;;;14.60;;
37903;SDS011;23738;50.422;18.758;2023-11-22T06:20:46;24.00;;;15.70;;
37903;SDS011;23738;50.422;18.758;2023-11-22T06:23:15;24.60;;;14.70;;
37903;SDS011;23738;50.422;18.758;2023-11-22T06:25:45;17.20;;;14.80;;
37903;SDS011;23738;50.422;18.758;2023-11-22T06:28:15;24.70;;;15.10;;
37903;SDS011;23738;50.422;18.758;2023-11-22T06:30:44;22.30;;;15.60;;
37903;SDS011;23738;50.422;18.758;2023-11-22T06:33:14;25.30;;;17.60;;
37903;SDS011;23738;50.422;18.758;2023-11-22T06:35:44;26.90;;;18.60;;
37903;SDS011;23738;50.422;18.758;2023-11-22T06:38:14;28.60;;;18.00;;
37903;SDS011;23738;50.422;18.758;2023-11-22T06:40:44;21.60;;;16.50;;
37903;SDS011;23738;50.422;18.758;2023-11-22T06:43:14;25.60;;;16.70;;
37903;SDS011;23738;50.422;18.758;2023-11-22T06:45:43;25.30;;;16.00;;
37903;SDS011;23738;50.422;18.758;2023-11-22T06:48:13;28.60;;;14.10;;
37903;SDS011;23738;50.422;18.758;2023-11-22T06:50:43;16.60;;;12.80;;
37903;SDS011;23738;50.422;18.758;2023-11-22T06:53:13;17.30;;;13.30;;
37903;SDS011;23738;50.422;18.758;2023-11-22T06:58:27;15.10;;;11.30;;
37903;SDS011;23738;50.422;18.758;2023-11-22T07:00:57;21.10;;;12.20;;
37903;SDS011;23738;50.422;18.758;2023-11-22T07:03:28;20.70;;;11.10;;
37903;SDS011;23738;50.422;18.758;2023-11-22T07:05:58;46.20;;;14.10;;
37903;SDS011;23738;50.422;18.758;2023-11-22T07:08:29;54.70;;;15.70;;
37903;SDS011;23738;50.422;18.758;2023-11-22T07:10:58;33.80;;;12.00;;
37903;SDS011;23738;50.422;18.758;2023-11-22T07:13:30;33.50;;;12.20;;
37903;SDS011;23738;50.422;18.758;2023-11-22T07:16:00;50.30;;;14.50;;
37903;SDS011;23738;50.422;18.758;2023-11-22T07:18:30;52.30;;;16.90;;
37903;SDS011;23738;50.422;18.758;2023-11-22T07:21:00;25.10;;;11.30;;
37903;SDS011;23738;50.422;18.758;2023-11-22T07:23:30;24.90;;;11.20;;
37903;SDS011;23738;50.422;18.758;2023-11-22T07:25:59;29.30;;;12.50;;
37903;SDS011;23738;50.422;18.758;2023-11-22T07:28:30;25.20;;;12.00;;
37903;SDS011;23738;50.422;18.758;2023-11-22T07:31:02;50.10;;;17.00;;
37903;SDS011;23738;50.422;18.758;2023-11-22T07:33:34;47.10;;;16.80;;
37903;SDS011;23738;50.422;18.758;2023-11-22T07:36:06;43.20;;;18.50;;
37903;SDS011;23738;50.422;18.758;2023-11-22T07:38:41;32.50;;;14.20;;
37903;SDS011;23738;50.422;18.758;2023-11-22T07:41:10;43.00;;;17.00;;
37903;SDS011;23738;50.422;18.758;2023-11-22T07:43:40;41.90;;;16.50;;
37903;SDS011;23738;50.422;18.758;2023-11-22T07:46:11;34.10;;;15.40;;
37903;SDS011;23738;50.422;18.758;2023-11-22T07:48:41;37.90;;;17.10;;
37903;SDS011;23738;50.422;18.758;2023-11-22T07:51:14;20.50;;;13.30;;
37903;SDS011;23738;50.422;18.758;2023-11-22T07:53:44;24.40;;;13.60;;
37903;SDS011;23738;50.422;18.758;2023-11-22T07:56:15;24.70;;;14.20;;
37903;SDS011;23738;50.422;18.758;2023-11-22T07:58:45;20.00;;;13.70;;
37903;SDS011;23738;50.422;18.758;2023-11-22T08:01:14;18.80;;;12.40;;
37903;SDS011;23738;50.422;18.758;2023-11-22T08:03:46;18.40;;;12.60;;
37903;SDS011;23738;50.422;18.758;2023-11-22T08:06:18;19.20;;;13.80;;
37903;SDS011;23738;50.422;18.758;2023-11-22T08:08:47;24.20;;;14.00;;
37903;SDS011;23738;50.422;18.758;2023-11-22T08:11:17;15.90;;;12.50;;
37903;SDS011;23738;50.422;18.758;2023-11-22T08:13:47;24.90;;;13.30;;
37903;SDS011;23738;50.422;18.758;2023-11-22T08:16:17;25.90;;;14.80;;
37903;SDS011;23738;50.422;18.758;2023-11-22T08:18:46;17.20;;;12.40;;
37903;SDS011;23738;50.422;18.758;2023-11-22T08:21:16;18.50;;;12.10;;
37903;SDS011;23738;50.422;18.758;2023-11-22T08:23:46;29.20;;;13.60;;
37903;SDS011;23738;50.422;18.758;2023-11-22T08:26:16;28.40;;;13.50;;
37903;SDS011;23738;50.422;18.758;2023-11-22T08:28:46;19.90;;;12.10;;
37903;SDS011;23738;50.422;18.758;2023-11-22T08:31:15;18.80;;;12.40;;
37903;SDS011;23738;50.422;18.758;2023-11-22T08:33:45;23.70;;;13.40;;
37903;SDS011;23738;50.422;18.758;2023-11-22T08:43:45;24.80;;;11.40;;
37903;SDS011;23738;50.422;18.758;2023-11-22T08:46:15;15.30;;;11.30;;
37903;SDS011;23738;50.422;18.758;2023-11-22T08:48:45;10.70;;;9.00;;
37903;SDS011;23738;50.422;18.758;2023-11-22T08:51:15;11.60;;;7.20;;
37903;SDS011;23738;50.422;18.758;2023-11-22T08:53:45;11.10;;;7.40;;
37903;SDS011;23738;50.422;18.758;2023-11-22T08:56:16;7.90;;;6.00;;
37903;SDS011;23738;50.422;18.758;2023-11-22T08:58:47;8.40;;;5.00;;
37903;SDS011;23738;50.422;18.758;2023-11-22T09:01:16;7.80;;;5.70;;
37903;SDS011;23738;50.422;18.758;2023-11-22T09:03:46;11.90;;;7.60;;
37903;SDS011;23738;50.422;18.758;2023-11-22T09:06:16;8.30;;;5.70;;
37903;SDS011;23738;50.422;18.758;2023-11-22T09:08:46;6.30;;;5.10;;
37903;SDS011;23738;50.422;18.758;2023-11-22T09:11:16;11.80;;;7.40;;
37903;SDS011;23738;50.422;18.758;2023-11-22T09:13:48;7.60;;;6.30;;
37903;SDS011;23738;50.422;18.758;2023-11-22T09:16:20;15.30;;;11.00;;
37903;SDS011;23738;50.422;18.758;2023-11-22T09:18:51;18.10;;;11.50;;
37903;SDS011;23738;50.422;18.758;2023-11-22T09:21:24;13.70;;;10.40;;
37903;SDS011;23738;50.422;18.758;2023-11-22T09:23:53;19.00;;;12.00;;
37903;SDS011;23738;50.422;18.758;2023-11-22T09:26:23;14.60;;;9.60;;
37903;SDS011;23738;50.422;18.758;2023-11-22T09:28:53;11.90;;;9.50;;
37903;SDS011;23738;50.422;18.758;2023-11-22T09:31:22;9.80;;;7.60;;
37903;SDS011;23738;50.422;18.758;2023-11-22T09:33:53;10.30;;;8.20;;
37903;SDS011;23738;50.422;18.758;2023-11-22T09:36:23;13.40;;;10.10;;
37903;SDS011;23738;50.422;18.758;2023-11-22T09:38:54;12.90;;;9.50;;
37903;SDS011;23738;50.422;18.758;2023-11-22T09:41:23;11.60;;;8.80;;
37903;SDS011;23738;50.422;18.758;2023-11-22T09:43:53;10.50;;;8.00;;
37903;SDS011;23738;50.422;18.758;2023-11-22T09:46:25;13.30;;;7.90;;
37903;SDS011;23738;50.422;18.758;2023-11-22T09:48:57;14.90;;;9.00;;
37903;SDS011;23738;50.422;18.758;2023-11-22T09:51:29;11.90;;;8.00;;
37903;SDS011;23738;50.422;18.758;2023-11-22T09:54:00;13.60;;;8.00;;
37903;SDS011;23738;50.422;18.758;2023-11-22T09:56:38;10.70;;;8.50;;
37903;SDS011;23738;50.422;18.758;2023-11-22T09:59:16;11.50;;;8.80;;
37903;SDS011;23738;50.422;18.758;2023-11-22T10:01:50;9.90;;;8.20;;
37903;SDS011;23738;50.422;18.758;2023-11-22T10:04:20;11.00;;;9.10;;
37903;SDS011;23738;50.422;18.758;2023-11-22T10:06:51;35.60;;;17.20;;
37903;SDS011;23738;50.422;18.758;2023-11-22T10:09:21;24.00;;;14.20;;
37903;SDS011;23738;50.422;18.758;2023-11-22T10:11:51;17.40;;;12.20;;
37903;SDS011;23738;50.422;18.758;2023-11-22T10:14:24;11.50;;;10.20;;
37903;SDS011;23738;50.422;18.758;2023-11-22T10:17:00;16.70;;;10.70;;
37903;SDS011;23738;50.422;18.758;2023-11-22T10:19:32;16.80;;;12.20;;
37903;SDS011;23738;50.422;18.758;2023-11-22T10:22:05;17.40;;;13.70;;
37903;SDS011;23738;50.422;18.758;2023-11-22T10:24:36;23.60;;;15.70;;
37903;SDS011;23738;50.422;18.758;2023-11-22T10:27:07;21.50;;;15.20;;
37903;SDS011;23738;50.422;18.758;2023-11-22T10:29:38;19.40;;;13.20;;
37903;SDS011;23738;50.422;18.758;2023-11-22T10:32:08;17.40;;;13.30;;
37903;SDS011;23738;50.422;18.758;2023-11-22T10:34:39;18.80;;;13.70;;
37903;SDS011;23738;50.422;18.758;2023-11-22T10:37:09;20.20;;;15.70;;
37903;SDS011;23738;50.422;18.758;2023-11-22T10:39:38;28.10;;;18.00;;
37903;SDS011;23738;50.422;18.758;2023-11-22T10:42:08;24.20;;;16.70;;
37903;SDS011;23738;50.422;18.758;2023-11-22T10:44:39;26.90;;;18.40;;
37903;SDS011;23738;50.422;18.758;2023-11-22T10:47:10;22.00;;;15.70;;
37903;SDS011;23738;50.422;18.758;2023-11-22T10:49:45;18.20;;;11.80;;
37903;SDS011;23738;50.422;18.758;2023-11-22T10:52:16;21.80;;;15.20;;
37903;SDS011;23738;50.422;18.758;2023-11-22T10:54:49;21.70;;;15.00;;
37903;SDS011;23738;50.422;18.758;2023-11-22T10:57:23;22.00;;;14.80;;
37903;SDS011;23738;50.422;18.758;2023-11-22T10:59:59;24.60;;;16.00;;
37903;SDS011;23738;50.422;18.758;2023-11-22T11:05:06;19.60;;;15.30;;
37903;SDS011;23738;50.422;18.758;2023-11-22T11:07:49;21.70;;;16.00;;
37903;SDS011;23738;50.422;18.758;2023-11-22T11:10:28;21.90;;;16.60;;
37903;SDS011;23738;50.422;18.758;2023-11-22T11:13:01;24.50;;;16.10;;
37903;SDS011;23738;50.422;18.758;2023-11-22T11:15:30;25.00;;;15.20;;
37903;SDS011;23738;50.422;18.758;2023-11-22T11:18:00;22.50;;;15.10;;
37903;SDS011;23738;50.422;18.758;2023-11-22T11:20:33;25.70;;;17.20;;
37903;SDS011;23738;50.422;18.758;2023-11-22T11:23:16;21.70;;;15.40;;
37903;SDS011;23738;50.422;18.758;2023-11-22T11:25:49;26.80;;;17.20;;
37903;SDS011;23738;50.422;18.758;2023-11-22T11:28:20;28.70;;;17.00;;
37903;SDS011;23738;50.422;18.758;2023-11-22T11:30:52;27.00;;;17.40;;
37903;SDS011;23738;50.422;18.758;2023-11-22T11:33:27;22.40;;;16.60;;
37903;SDS011;23738;50.422;18.758;2023-11-22T11:36:01;24.80;;;16.60;;
37903;SDS011;23738;50.422;18.758;2023-11-22T11:38:32;24.90;;;15.90;;
37903;SDS011;23738;50.422;18.758;2023-11-22T11:41:10;40.00;;;20.40;;
37903;SDS011;23738;50.422;18.758;2023-11-22T11:43:41;33.50;;;19.60;;
37903;SDS011;23738;50.422;18.758;2023-11-22T11:46:13;25.40;;;17.10;;
37903;SDS011;23738;50.422;18.758;2023-11-22T11:48:44;28.70;;;17.60;;
37903;SDS011;23738;50.422;18.758;2023-11-22T11:51:15;27.80;;;16.50;;
37903;SDS011;23738;50.422;18.758;2023-11-22T11:53:46;27.10;;;15.90;;
37903;SDS011;23738;50.422;18.758;2023-11-22T11:56:17;22.20;;;14.90;;
37903;SDS011;23738;50.422;18.758;2023-11-22T11:58:48;23.10;;;14.00;;
37903;SDS011;23738;50.422;18.758;2023-11-22T12:01:18;20.20;;;14.10;;
37903;SDS011;23738;50.422;18.758;2023-11-22T12:03:48;22.80;;;13.70;;
37903;SDS011;23738;50.422;18.758;2023-11-22T12:06:18;16.40;;;13.40;;
37903;SDS011;23738;50.422;18.758;2023-11-22T12:08:48;20.70;;;14.00;;
37903;SDS011;23738;50.422;18.758;2023-11-22T12:11:18;21.70;;;14.50;;
37903;SDS011;23738;50.422;18.758;2023-11-22T12:13:48;19.20;;;14.60;;
37903;SDS011;23738;50.422;18.758;2023-11-22T12:16:19;23.70;;;14.30;;
37903;SDS011;23738;50.422;18.758;2023-11-22T12:18:48;22.80;;;12.90;;
37903;SDS011;23738;50.422;18.758;2023-11-22T12:21:19;19.00;;;13.30;;
37903;SDS011;23738;50.422;18.758;2023-11-22T12:23:50;17.00;;;12.50;;
37903;SDS011;23738;50.422;18.758;2023-11-22T12:26:20;17.80;;;12.90;;
37903;SDS011;23738;50.422;18.758;2023-11-22T12:28:50;18.30;;;13.20;;
37903;SDS011;23738;50.422;18.758;2023-11-22T12:31:20;18.40;;;14.20;;
37903;SDS011;23738;50.422;18.758;2023-11-22T12:33:51;18.60;;;13.70;;
37903;SDS011;23738;50.422;18.758;2023-11-22T12:36:21;24.90;;;13.70;;
37903;SDS011;23738;50.422;18.758;2023-11-22T12:38:51;19.20;;;13.80;;
37903;SDS011;23738;50.422;18.758;2023-11-22T12:41:24;23.00;;;14.20;;
37903;SDS011;23738;50.422;18.758;2023-11-22T12:44:05;22.20;;;13.80;;
37903;SDS011;23738;50.422;18.758;2023-11-22T12:46:48;21.70;;;14.70;;
37903;SDS011;23738;50.422;18.758;2023-11-22T12:49:24;27.10;;;16.70;;
37903;SDS011;23738;50.422;18.758;2023-11-22T12:51:54;25.10;;;17.40;;
37903;SDS011;23738;50.422;18.758;2023-11-22T12:54:24;21.60;;;14.80;;
37903;SDS011;23738;50.422;18.758;2023-11-22T12:56:55;23.40;;;16.00;;
37903;SDS011;23738;50.422;18.758;2023-11-22T12:59:25;27.30;;;17.60;;
37903;SDS011;23738;50.422;18.758;2023-11-22T13:01:57;24.20;;;16.80;;
37903;SDS011;23738;50.422;18.758;2023-11-22T13:04:27;27.70;;;17.20;;
37903;SDS011;23738;50.422;18.758;2023-11-22T13:06:57;35.30;;;17.80;;
37903;SDS011;23738;50.422;18.758;2023-11-22T13:09:27;27.40;;;15.00;;
37903;SDS011;23738;50.422;18.758;2023-11-22T13:11:58;23.90;;;15.50;;
37903;SDS011;23738;50.422;18.758;2023-11-22T13:14:28;22.60;;;15.30;;
37903;SDS011;23738;50.422;18.758;2023-11-22T13:17:04;23.30;;;16.30;;
37903;SDS011;23738;50.422;18.758;2023-11-22T13:19:34;25.20;;;17.00;;
37903;SDS011;23738;50.422;18.758;2023-11-22T13:22:06;25.70;;;16.60;;
37903;SDS011;23738;50.422;18.758;2023-11-22T13:24:37;20.20;;;14.90;;
37903;SDS011;23738;50.422;18.758;2023-11-22T13:27:10;19.60;;;14.90;;
37903;SDS011;23738;50.422;18.758;2023-11-22T13:29:39;20.50;;;14.20;;
37903;SDS011;23738;50.422;18.758;2023-11-22T13:32:10;23.20;;;16.60;;
37903;SDS011;23738;50.422;18.758;2023-11-22T13:34:40;36.20;;;18.90;;
37903;SDS011;23738;50.422;18.758;2023-11-22T13:37:09;42.00;;;21.00;;
37903;SDS011;23738;50.422;18.758;2023-11-22T13:39:42;40.10;;;20.20;;
37903;SDS011;23738;50.422;18.758;2023-11-22T13:42:12;32.80;;;19.60;;
37903;SDS011;23738;50.422;18.758;2023-11-22T13:44:41;32.70;;;19.50;;
37903;SDS011;23738;50.422;18.758;2023-11-22T13:47:11;33.90;;;18.50;;
37903;SDS011;23738;50.422;18.758;2023-11-22T13:49:41;21.70;;;15.60;;
37903;SDS011;23738;50.422;18.758;2023-11-22T13:52:11;35.60;;;17.20;;
37903;SDS011;23738;50.422;18.758;2023-11-22T13:54:40;25.40;;;17.40;;
37903;SDS011;23738;50.422;18.758;2023-11-22T13:57:10;25.20;;;17.40;;
37903;SDS011;23738;50.422;18.758;2023-11-22T13:59:40;22.60;;;15.20;;
37903;SDS011;23738;50.422;18.758;2023-11-22T14:02:10;21.80;;;16.00;;
37903;SDS011;23738;50.422;18.758;2023-11-22T14:04:40;27.70;;;17.00;;
37903;SDS011;23738;50.422;18.758;2023-11-22T14:07:10;28.20;;;16.50;;
37903;SDS011;23738;50.422;18.758;2023-11-22T14:09:40;27.50;;;17.40;;
37903;SDS011;23738;50.422;18.758;2023-11-22T14:12:13;31.20;;;17.10;;
37903;SDS011;23738;50.422;18.758;2023-11-22T14:14:45;22.90;;;16.00;;
37903;SDS011;23738;50.422;18.758;2023-11-22T14:17:15;19.90;;;14.00;;
37903;SDS011;23738;50.422;18.758;2023-11-22T14:19:47;19.10;;;14.90;;
37903;SDS011;23738;50.422;18.758;2023-11-22T14:22:17;19.20;;;14.60;;
37903;SDS011;23738;50.422;18.758;2023-11-22T14:24:47;20.00;;;15.10;;
37903;SDS011;23738;50.422;18.758;2023-11-22T14:27:17;19.00;;;13.60;;
37903;SDS011;23738;50.422;18.758;2023-11-22T14:29:47;22.40;;;13.10;;
37903;SDS011;23738;50.422;18.758;2023-11-22T14:32:18;19.60;;;12.80;;
37903;SDS011;23738;50.422;18.758;2023-11-22T14:34:48;15.00;;;11.80;;
37903;SDS011;23738;50.422;18.758;2023-11-22T14:37:20;16.40;;;12.00;;
37903;SDS011;23738;50.422;18.758;2023-11-22T14:39:49;20.70;;;13.60;;
37903;SDS011;23738;50.422;18.758;2023-11-22T14:42:20;18.60;;;13.00;;